Time;durP1;ratioP1;P1;durP2;ratioP2;P2;SDS_P1;SDS_P2;PMS_P1;PMS_P2;Temp;Humidity;BMP_temperature;BMP_pressure;BME280_temperature;BME280_humidity;BME280_pressure;Samples;Min_cycle;Max_cycle;Signal;HPM_P1;HPM_P2
2023/11/19 00:02:24;;;;;;;2.80;2.50;;;11.30;98.40;;;;;;780536;181;26440;-90
2023/11/19 00:04:51;;;;;;;3.47;2.70;;;11.30;98.40;;;;;;780430;184;26538;-90
2023/11/19 00:07:18;;;;;;;2.77;2.37;;;11.30;98.40;;;;;;786812;179;26538;-89
2023/11/19 00:09:44;;;;;;;2.80;2.40;;;11.30;98.40;;;;;;789571;178;26512;-89
2023/11/19 00:12:11;;;;;;;2.77;2.47;;;11.30;98.40;;;;;;783878;179;26503;-89
2023/11/19 00:14:37;;;;;;;3.90;2.37;;;11.40;98.30;;;;;;783449;183;26524;-90
2023/11/19 00:17:04;;;;;;;3.97;2.90;;;11.40;98.20;;;;;;785043;183;26527;-89
2023/11/19 00:19:31;;;;;;;4.40;2.20;;;11.40;98.10;;;;;;785300;179;26490;-90
2023/11/19 00:22:02;;;;;;;2.30;2.00;;;11.40;98.20;;;;;;785132;181;26531;-89
2023/11/19 00:24:24;;;;;;;3.00;2.20;;;11.50;98.70;;;;;;783655;181;26495;-89
2023/11/19 00:26:50;;;;;;;1.90;1.80;;;11.50;98.30;;;;;;787644;178;26529;-90
2023/11/19 00:29:18;;;;;;;3.53;2.10;;;11.50;98.20;;;;;;788769;179;26548;-89
2023/11/19 00:31:43;;;;;;;2.60;1.90;;;11.60;98.30;;;;;;783292;178;26444;-90
2023/11/19 00:34:10;;;;;;;2.40;1.90;;;11.50;98.20;;;;;;781935;184;26461;-89
2023/11/19 00:36:37;;;;;;;2.27;2.00;;;11.50;98.20;;;;;;782237;180;26468;-90
2023/11/19 00:39:03;;;;;;;2.80;2.37;;;11.60;98.20;;;;;;782821;183;26457;-90
2023/11/19 00:41:30;;;;;;;2.63;2.00;;;11.60;98.40;;;;;;782241;180;26464;-89
2023/11/19 00:43:56;;;;;;;3.03;1.80;;;11.60;98.30;;;;;;782043;180;26473;-89
2023/11/19 00:46:23;;;;;;;4.17;2.23;;;11.60;98.30;;;;;;783048;181;26480;-90
2023/11/19 00:48:50;;;;;;;2.83;2.10;;;11.60;98.30;;;;;;785378;180;26519;-89
2023/11/19 00:51:16;;;;;;;2.60;1.83;;;11.60;98.40;;;;;;785701;178;26467;-90
2023/11/19 00:53:43;;;;;;;2.77;2.20;;;11.60;98.40;;;;;;785407;180;26443;-90
2023/11/19 00:56:12;;;;;;;2.63;2.00;;;11.60;98.40;;;;;;784367;182;26464;-91
2023/11/19 00:58:36;;;;;;;2.40;2.20;;;11.60;98.50;;;;;;788849;178;26733;-92
2023/11/19 01:01:03;;;;;;;4.97;1.90;;;11.60;98.50;;;;;;783782;184;26432;-92
2023/11/19 01:03:29;;;;;;;4.20;1.87;;;11.70;98.60;;;;;;789670;178;26472;-89
2023/11/19 01:05:56;;;;;;;3.43;2.00;;;11.70;98.50;;;;;;792008;179;26469;-90
2023/11/19 01:08:24;;;;;;;2.10;1.80;;;11.70;98.60;;;;;;787708;178;26449;-89
2023/11/19 01:10:49;;;;;;;2.83;2.17;;;11.70;98.60;;;;;;782117;182;26977;-90
2023/11/19 01:13:16;;;;;;;2.50;1.87;;;11.70;98.60;;;;;;780866;184;26456;-89
2023/11/19 01:16:06;;;;;;;3.40;2.00;;;11.70;98.70;;;;;;780507;184;26477;-92
2023/11/19 01:21:36;;;;;;;14.63;8.90;;;11.70;98.90;;;;;;780441;181;27053;-92
2023/11/19 01:24:35;;;;;;;162.80;70.57;;;11.70;98.90;;;;;;780329;184;26512;-93
2023/11/19 01:27:42;;;;;;;52.47;27.37;;;11.70;99.00;;;;;;777726;180;26478;-93
2023/11/19 01:30:12;;;;;;;39.50;23.43;;;11.80;99.10;;;;;;770477;185;26489;-93
2023/11/19 01:32:38;;;;;;;5.83;4.80;;;11.80;99.10;;;;;;771728;181;26465;-92
2023/11/19 01:35:05;;;;;;;13.13;9.20;;;11.80;99.10;;;;;;785175;179;26486;-92
2023/11/19 01:37:34;;;;;;;11.87;8.30;;;11.90;99.40;;;;;;781311;178;26453;-92
2023/11/19 01:39:59;;;;;;;6.47;4.90;;;12.00;99.30;;;;;;780709;180;26450;-92
2023/11/19 01:45:22;;;;;;;9.43;7.13;;;12.00;99.30;;;;;;783061;179;27262;-92
2023/11/19 01:47:49;;;;;;;8.03;5.90;;;12.10;99.40;;;;;;785481;180;26463;-92
2023/11/19 01:50:16;;;;;;;35.07;21.80;;;12.20;99.50;;;;;;787239;180;26452;-91
2023/11/19 01:52:43;;;;;;;73.20;39.63;;;12.30;99.50;;;;;;791271;178;26460;-91
2023/11/19 01:55:10;;;;;;;90.43;52.00;;;12.40;99.50;;;;;;791042;178;26472;-92
2023/11/19 01:57:38;;;;;;;27.30;16.47;;;12.40;99.40;;;;;;790354;178;26460;-91
2023/11/19 02:00:03;;;;;;;49.30;30.43;;;12.50;99.30;;;;;;783875;178;26444;-92
2023/11/19 02:02:30;;;;;;;25.13;14.90;;;12.50;99.20;;;;;;786031;179;26990;-92
2023/11/19 02:04:57;;;;;;;19.43;11.80;;;12.60;99.20;;;;;;785928;178;26463;-90
2023/11/19 02:07:24;;;;;;;57.13;33.53;;;12.70;99.10;;;;;;787647;178;26477;-91
2023/11/19 02:09:51;;;;;;;10.73;6.23;;;12.80;98.80;;;;;;788544;179;26995;-92
2023/11/19 02:12:17;;;;;;;14.37;9.27;;;12.90;98.50;;;;;;790387;178;26469;-90
2023/11/19 02:14:44;;;;;;;11.83;6.60;;;13.00;98.40;;;;;;790359;178;27010;-91
2023/11/19 02:17:26;;;;;;;12.90;6.97;;;13.00;98.20;;;;;;790113;178;26467;-91
2023/11/19 02:19:52;;;;;;;12.60;5.40;;;13.00;98.20;;;;;;786103;179;26444;-91
2023/11/19 02:22:18;;;;;;;30.40;17.93;;;12.90;98.10;;;;;;789438;178;26996;-91
2023/11/19 02:24:46;;;;;;;18.80;10.60;;;12.90;98.10;;;;;;789711;178;26507;-91
2023/11/19 02:27:12;;;;;;;19.57;9.33;;;13.00;98.10;;;;;;789319;179;26501;-91
2023/11/19 02:29:38;;;;;;;12.13;7.07;;;13.00;97.90;;;;;;788682;178;27064;-91
2023/11/19 02:32:05;;;;;;;26.67;12.80;;;13.00;97.80;;;;;;789487;179;26556;-90
2023/11/19 02:34:32;;;;;;;22.20;14.77;;;12.90;97.80;;;;;;789277;179;26481;-90
2023/11/19 02:36:58;;;;;;;22.37;13.00;;;13.00;97.70;;;;;;789414;178;26521;-90
2023/11/19 02:39:26;;;;;;;41.07;23.10;;;13.00;97.60;;;;;;788889;179;27119;-90
2023/11/19 02:41:53;;;;;;;49.90;28.03;;;13.00;97.70;;;;;;785034;179;26566;-91
2023/11/19 02:44:18;;;;;;;19.93;8.20;;;13.00;97.70;;;;;;784928;179;26547;-91
2023/11/19 02:46:59;;;;;;;19.97;8.70;;;13.00;97.70;;;;;;776940;178;26557;-89
2023/11/19 02:55:09;;;;;;;18.57;9.97;;;12.90;97.60;;;;;;769874;182;26475;-89
2023/11/19 02:58:19;;;;;;;;;;;;;;;;;;;;;
2023/11/19 03:08:44;;;;;;;20.20;8.83;;;12.60;97.70;;;;;;716609;178;26528;-89
2023/11/19 03:14:28;;;;;;;79.43;46.50;;;12.60;97.40;;;;;;783391;182;26536;-88
2023/11/19 03:16:57;;;;;;;24.13;12.57;;;12.60;97.60;;;;;;788797;180;27052;-88
2023/11/19 03:19:29;;;;;;;78.27;36.33;;;12.50;97.50;;;;;;797041;180;27030;-88
2023/11/19 03:22:10;;;;;;;40.40;20.90;;;12.60;97.50;;;;;;766874;186;27038;-89
2023/11/19 03:24:47;;;;;;;34.10;18.07;;;12.50;97.50;;;;;;788672;181;26452;-88
2023/11/19 03:27:18;;;;;;;24.83;12.63;;;12.60;97.40;;;;;;772228;186;27038;-89
2023/11/19 03:29:49;;;;;;;21.10;8.00;;;12.60;97.40;;;;;;786185;182;26554;-88
2023/11/19 03:32:15;;;;;;;15.07;5.17;;;12.60;97.40;;;;;;786952;183;26469;-89
2023/11/19 03:34:48;;;;;;;10.93;3.07;;;12.60;97.30;;;;;;786795;179;27005;-88
2023/11/19 03:37:28;;;;;;;12.43;3.50;;;12.70;97.20;;;;;;772331;185;26535;-88
2023/11/19 03:39:59;;;;;;;13.80;4.20;;;12.70;97.20;;;;;;766666;187;26481;-88
2023/11/19 03:42:25;;;;;;;19.40;8.43;;;12.70;96.90;;;;;;766199;187;26499;-88
2023/11/19 03:44:53;;;;;;;24.80;8.33;;;12.80;96.60;;;;;;781235;179;27090;-89
2023/11/19 03:47:20;;;;;;;8.80;3.00;;;12.80;96.60;;;;;;751596;191;26505;-88
2023/11/19 03:49:55;;;;;;;10.27;3.93;;;12.80;96.40;;;;;;782356;180;26469;-88
2023/11/19 03:52:34;;;;;;;8.73;2.97;;;12.80;96.30;;;;;;790069;181;27107;-88
2023/11/19 03:55:01;;;;;;;15.10;4.50;;;12.90;96.10;;;;;;781941;183;26498;-87
2023/11/19 03:57:36;;;;;;;36.23;14.60;;;12.90;96.00;;;;;;769117;181;26488;-87
2023/11/19 04:00:10;;;;;;;47.63;21.50;;;12.90;95.90;;;;;;784994;181;26485;-87
2023/11/19 04:02:49;;;;;;;17.47;6.10;;;12.90;96.10;;;;;;794311;180;26670;-88
2023/11/19 04:05:20;;;;;;;20.97;8.10;;;12.80;96.00;;;;;;794223;181;26977;-87
2023/11/19 04:07:47;;;;;;;26.30;9.07;;;12.90;96.10;;;;;;794225;180;26960;-88
2023/11/19 04:10:17;;;;;;;26.83;11.20;;;12.90;95.80;;;;;;792049;180;26452;-87
2023/11/19 04:12:43;;;;;;;62.37;29.40;;;12.90;95.60;;;;;;782865;182;26460;-89
2023/11/19 04:15:10;;;;;;;79.63;43.57;;;12.90;95.90;;;;;;783225;179;26460;-87
2023/11/19 04:17:39;;;;;;;94.20;50.30;;;12.90;96.00;;;;;;784685;181;26475;-87
2023/11/19 04:20:10;;;;;;;156.13;76.63;;;12.90;96.00;;;;;;787767;181;27005;-89
2023/11/19 04:22:34;;;;;;;32.73;14.77;;;12.90;95.90;;;;;;771504;185;26459;-87
2023/11/19 04:25:05;;;;;;;15.90;5.77;;;12.90;95.90;;;;;;797156;181;26475;-91
2023/11/19 04:27:35;;;;;;;29.30;12.90;;;12.90;95.80;;;;;;761127;183;26493;-88
2023/11/19 04:30:13;;;;;;;26.77;11.30;;;12.90;95.70;;;;;;791332;181;26492;-90
2023/11/19 04:32:43;;;;;;;34.27;17.67;;;12.90;95.90;;;;;;779195;178;26517;-87
2023/11/19 04:35:10;;;;;;;12.77;4.73;;;12.80;96.10;;;;;;782344;184;26556;-86
2023/11/19 04:37:38;;;;;;;43.67;25.47;;;12.90;96.00;;;;;;783135;178;26464;-87
2023/11/19 04:40:06;;;;;;;52.63;30.63;;;12.90;95.90;;;;;;751787;191;26498;-86
2023/11/19 04:42:34;;;;;;;27.97;10.07;;;12.90;95.90;;;;;;783625;178;26479;-88
2023/11/19 04:45:11;;;;;;;21.33;8.30;;;13.00;95.50;;;;;;751837;188;26546;-87
2023/11/19 04:47:38;;;;;;;25.97;6.67;;;13.00;95.00;;;;;;783296;180;27060;-87
2023/11/19 04:50:14;;;;;;;25.97;10.57;;;13.00;94.70;;;;;;767929;184;27727;-87
2023/11/19 04:52:45;;;;;;;18.37;4.20;;;13.00;95.00;;;;;;781118;181;26495;-88
2023/11/19 04:55:11;;;;;;;14.53;4.67;;;13.00;94.60;;;;;;781180;180;26469;-87
2023/11/19 04:57:42;;;;;;;14.40;3.47;;;13.00;94.90;;;;;;784592;179;26457;-87
2023/11/19 05:00:27;;;;;;;20.57;4.23;;;13.00;94.70;;;;;;781297;184;26519;-87
2023/11/19 05:02:59;;;;;;;16.77;3.53;;;13.00;95.00;;;;;;777049;184;26463;-90
2023/11/19 05:05:31;;;;;;;21.57;4.50;;;13.00;94.80;;;;;;781150;183;26481;-88
2023/11/19 05:08:08;;;;;;;20.77;4.10;;;12.90;95.00;;;;;;781296;184;26482;-87
2023/11/19 05:10:36;;;;;;;16.90;4.10;;;12.80;95.00;;;;;;781304;184;26453;-88
2023/11/19 05:13:10;;;;;;;16.03;4.20;;;12.70;95.50;;;;;;781153;181;26534;-87
2023/11/19 05:15:43;;;;;;;12.43;4.10;;;12.70;95.20;;;;;;781994;180;26467;-87
2023/11/19 05:18:12;;;;;;;15.93;4.57;;;12.70;95.40;;;;;;787772;181;26999;-87
2023/11/19 05:20:42;;;;;;;20.13;4.77;;;12.70;94.80;;;;;;793866;178;28061;-86
2023/11/19 05:23:16;;;;;;;20.10;3.57;;;12.60;94.90;;;;;;795025;178;26491;-87
2023/11/19 05:25:50;;;;;;;15.57;4.00;;;12.50;95.10;;;;;;782851;181;27097;-86
2023/11/19 05:30:53;;;;;;;17.13;4.00;;;12.40;94.80;;;;;;782768;183;27034;-87
2023/11/19 05:36:04;;;;;;;17.50;4.07;;;12.50;94.40;;;;;;765507;184;26489;-87
2023/11/19 05:38:35;;;;;;;16.47;3.33;;;12.50;94.30;;;;;;764153;185;26520;-87
2023/11/19 05:41:24;;;;;;;13.33;3.50;;;12.50;93.80;;;;;;765287;180;26482;-87
2023/11/19 05:43:54;;;;;;;16.90;3.40;;;12.60;93.40;;;;;;763915;188;26518;-86
2023/11/19 05:46:23;;;;;;;21.13;4.27;;;12.50;93.70;;;;;;771764;183;26483;-87
2023/11/19 05:48:54;;;;;;;20.80;3.63;;;12.30;93.90;;;;;;781458;183;26551;-87
2023/11/19 05:51:24;;;;;;;18.90;3.83;;;12.30;93.60;;;;;;780742;179;26486;-87
2023/11/19 05:53:57;;;;;;;13.70;3.60;;;12.20;93.70;;;;;;766797;184;26508;-87
2023/11/19 05:59:07;;;;;;;26.07;4.40;;;12.30;93.20;;;;;;777976;184;27125;-87
2023/11/19 06:01:30;;;;;;;22.83;3.93;;;12.30;93.30;;;;;;779885;181;27033;-88
2023/11/19 06:04:04;;;;;;;17.97;4.53;;;12.10;93.30;;;;;;777865;184;26515;-86
2023/11/19 06:06:41;;;;;;;21.00;5.10;;;12.10;93.60;;;;;;777706;184;26503;-88
2023/11/19 06:09:18;;;;;;;18.13;3.87;;;12.10;93.70;;;;;;780155;184;26480;-85
2023/11/19 06:11:47;;;;;;;19.57;5.43;;;12.10;93.20;;;;;;777874;184;26558;-88
2023/11/19 06:16:47;;;;;;;17.37;4.00;;;12.20;93.00;;;;;;779805;184;27129;-86
2023/11/19 06:19:21;;;;;;;22.27;4.20;;;12.20;93.20;;;;;;776380;185;26478;-87
2023/11/19 06:21:52;;;;;;;23.37;4.23;;;12.10;93.10;;;;;;781523;183;26476;-88
2023/11/19 06:24:22;;;;;;;20.53;4.33;;;12.20;93.20;;;;;;766475;184;27059;-87
2023/11/19 06:32:41;;;;;;;22.43;4.47;;;12.20;92.60;;;;;;765281;188;26469;-87
2023/11/19 06:35:06;;;;;;;20.73;4.43;;;12.20;92.70;;;;;;753036;187;26532;-88
2023/11/19 06:37:42;;;;;;;18.43;3.70;;;12.20;92.90;;;;;;769461;184;27072;-87
2023/11/19 06:40:17;;;;;;;20.20;3.83;;;12.20;92.70;;;;;;770460;183;26506;-89
2023/11/19 06:42:47;;;;;;;24.47;4.83;;;12.30;92.50;;;;;;791391;181;26630;-88
2023/11/19 06:45:31;;;;;;;18.63;4.60;;;12.10;92.90;;;;;;788590;181;26471;-87
2023/11/19 06:48:12;;;;;;;17.10;4.67;;;12.30;92.40;;;;;;776060;184;26478;-87
2023/11/19 06:50:42;;;;;;;22.33;5.23;;;12.30;92.60;;;;;;778746;183;26461;-87
2023/11/19 06:53:32;;;;;;;;;;;;;;;;;;;;;
2023/11/19 06:56:17;;;;;;;;;;;;;;;;;;;;;
2023/11/19 06:58:47;;;;;;;22.97;4.07;;;12.10;93.00;;;;;;770571;186;26525;-88
2023/11/19 07:01:22;;;;;;;22.27;3.93;;;12.10;92.60;;;;;;769607;187;26480;-87
2023/11/19 07:04:54;;;;;;;;;;;;;;;;;;;;;
2023/11/19 07:09:51;;;;;;;17.27;4.30;;;12.10;92.40;;;;;;714807;184;27045;-88
2023/11/19 07:14:55;;;;;;;27.90;5.63;;;11.90;92.50;;;;;;779156;180;27882;-89
2023/11/19 07:17:30;;;;;;;19.33;4.80;;;11.90;92.90;;;;;;776628;182;26499;-87
2023/11/19 07:20:02;;;;;;;23.93;4.57;;;11.90;92.70;;;;;;778957;180;26546;-87
2023/11/19 07:22:29;;;;;;;21.60;4.30;;;11.90;92.60;;;;;;794158;173;26438;-88
2023/11/19 07:24:55;;;;;;;24.73;6.20;;;12.00;92.50;;;;;;825516;173;26417;-88
2023/11/19 07:27:24;;;;;;;20.67;4.63;;;12.00;92.60;;;;;;825834;174;26966;-87
2023/11/19 07:29:50;;;;;;;22.20;4.90;;;11.90;92.40;;;;;;825537;174;26495;-88
2023/11/19 07:32:16;;;;;;;24.47;4.97;;;12.00;92.30;;;;;;825432;174;26946;-87
2023/11/19 07:34:43;;;;;;;27.80;5.03;;;12.10;91.90;;;;;;824765;174;26454;-87
2023/11/19 07:37:09;;;;;;;18.70;4.47;;;12.20;91.60;;;;;;824692;174;26954;-87
2023/11/19 07:39:37;;;;;;;22.00;4.20;;;12.20;91.50;;;;;;824888;174;26431;-89
2023/11/19 07:42:03;;;;;;;17.53;4.03;;;12.20;91.80;;;;;;824811;174;26980;-88
2023/11/19 07:44:29;;;;;;;24.77;4.33;;;12.10;92.00;;;;;;825048;174;26975;-87
2023/11/19 07:46:57;;;;;;;17.43;3.77;;;12.10;91.50;;;;;;827270;172;26403;-88
2023/11/19 07:49:22;;;;;;;21.20;4.53;;;12.10;91.90;;;;;;827006;173;26421;-89
2023/11/19 07:51:49;;;;;;;22.97;4.07;;;12.10;91.50;;;;;;826682;174;26411;-87
2023/11/19 07:54:16;;;;;;;24.93;4.47;;;12.20;91.30;;;;;;826594;174;26434;-89
2023/11/19 07:56:42;;;;;;;27.30;5.57;;;12.20;91.10;;;;;;827921;173;26403;-90
2023/11/19 07:59:09;;;;;;;27.73;5.40;;;12.10;91.50;;;;;;828121;173;26414;-89
2023/11/19 08:01:35;;;;;;;21.67;4.43;;;12.10;91.90;;;;;;827430;173;26422;-89
2023/11/19 08:04:02;;;;;;;19.40;3.93;;;12.10;91.60;;;;;;826756;174;26439;-88
2023/11/19 08:06:29;;;;;;;21.83;4.23;;;12.20;91.00;;;;;;826248;174;26428;-88
2023/11/19 08:08:55;;;;;;;18.63;5.07;;;12.20;91.30;;;;;;826348;174;26419;-88
2023/11/19 08:11:22;;;;;;;26.03;5.47;;;12.20;91.10;;;;;;826258;173;26423;-87
2023/11/19 08:13:48;;;;;;;17.13;4.67;;;12.10;91.30;;;;;;826129;174;26454;-88
2023/11/19 08:16:15;;;;;;;26.60;5.43;;;12.10;91.40;;;;;;826279;174;26478;-87
2023/11/19 08:18:43;;;;;;;25.97;4.97;;;12.10;91.20;;;;;;826206;173;26418;-87
2023/11/19 08:21:10;;;;;;;20.93;5.13;;;12.20;91.20;;;;;;826063;173;26492;-86
2023/11/19 08:23:37;;;;;;;19.80;5.43;;;12.30;91.30;;;;;;825570;173;26426;-88
2023/11/19 08:26:04;;;;;;;26.17;4.47;;;12.30;91.00;;;;;;825492;174;26414;-88
2023/11/19 08:28:31;;;;;;;18.50;4.30;;;12.40;90.90;;;;;;825560;174;26426;-88
2023/11/19 08:30:56;;;;;;;28.27;6.07;;;12.40;90.90;;;;;;825482;174;26961;-87
2023/11/19 08:33:23;;;;;;;23.87;4.20;;;12.40;91.90;;;;;;825537;174;26427;-88
2023/11/19 08:35:50;;;;;;;20.83;4.83;;;12.50;91.20;;;;;;825572;174;26545;-88
2023/11/19 08:38:16;;;;;;;18.30;4.57;;;12.50;90.80;;;;;;825589;174;26411;-88
2023/11/19 08:40:43;;;;;;;22.80;4.93;;;12.60;90.50;;;;;;825591;174;26962;-87
2023/11/19 08:43:09;;;;;;;18.73;5.13;;;12.70;90.40;;;;;;825572;174;26449;-87
2023/11/19 08:45:36;;;;;;;19.60;4.70;;;12.70;89.60;;;;;;825577;174;26944;-88
2023/11/19 08:48:02;;;;;;;20.33;4.17;;;12.80;89.50;;;;;;825672;174;26417;-88
2023/11/19 08:50:29;;;;;;;23.17;4.70;;;12.90;87.00;;;;;;825723;173;26426;-88
2023/11/19 08:52:56;;;;;;;19.23;4.70;;;12.90;88.90;;;;;;825656;174;26434;-88
2023/11/19 08:55:22;;;;;;;20.27;4.27;;;12.90;87.60;;;;;;825306;174;26414;-87
2023/11/19 08:57:49;;;;;;;23.87;4.43;;;12.90;87.30;;;;;;826784;172;26930;-87
2023/11/19 09:00:15;;;;;;;22.83;5.43;;;12.90;88.10;;;;;;827650;173;26430;-88
2023/11/19 09:02:42;;;;;;;26.50;5.40;;;12.90;88.20;;;;;;826835;173;26978;-88
2023/11/19 09:05:09;;;;;;;14.03;4.17;;;13.00;88.50;;;;;;826846;173;26419;-87
2023/11/19 09:07:35;;;;;;;17.13;4.23;;;13.00;87.10;;;;;;826747;174;26445;-88
2023/11/19 09:10:02;;;;;;;22.30;4.70;;;13.00;86.90;;;;;;826600;174;26414;-88
2023/11/19 09:12:28;;;;;;;18.17;4.27;;;13.20;86.70;;;;;;826554;173;26445;-89
2023/11/19 09:14:55;;;;;;;18.53;4.63;;;13.20;86.70;;;;;;826429;174;26430;-89
2023/11/19 09:17:22;;;;;;;26.03;5.60;;;13.30;85.70;;;;;;825948;174;26463;-89
2023/11/19 09:19:48;;;;;;;20.00;4.60;;;13.30;84.10;;;;;;826121;174;26448;-88
2023/11/19 09:22:15;;;;;;;20.67;6.33;;;13.50;83.60;;;;;;826057;173;26442;-88
2023/11/19 09:24:43;;;;;;;17.23;3.60;;;13.60;83.40;;;;;;826063;174;26419;-89
2023/11/19 09:27:08;;;;;;;15.43;4.10;;;13.70;82.50;;;;;;825842;173;27019;-88
2023/11/19 09:29:35;;;;;;;17.47;4.80;;;13.80;83.30;;;;;;825984;174;26403;-89
2023/11/19 09:32:01;;;;;;;21.83;4.23;;;13.80;84.40;;;;;;825593;174;28053;-89
2023/11/19 09:34:28;;;;;;;20.33;4.27;;;14.00;84.80;;;;;;825184;174;26427;-88
2023/11/19 09:36:54;;;;;;;21.03;4.63;;;14.40;80.70;;;;;;825100;174;26414;-88
2023/11/19 09:39:21;;;;;;;18.47;4.97;;;14.50;80.70;;;;;;825148;174;26407;-89
2023/11/19 09:41:48;;;;;;;24.80;5.10;;;14.90;79.60;;;;;;825192;174;26430;-89
2023/11/19 09:44:18;;;;;;;22.73;4.70;;;14.90;77.60;;;;;;824886;174;26409;-89
2023/11/19 09:46:41;;;;;;;22.13;5.33;;;15.40;77.10;;;;;;824875;174;26418;-90
2023/11/19 09:49:08;;;;;;;49.47;18.57;;;15.90;73.30;;;;;;825636;174;26966;-90
2023/11/19 09:51:34;;;;;;;21.97;5.33;;;15.40;76.50;;;;;;825242;173;26427;-89
2023/11/19 09:54:01;;;;;;;32.67;6.63;;;15.20;75.30;;;;;;825567;174;26423;-89
2023/11/19 09:56:27;;;;;;;24.33;6.63;;;15.00;76.50;;;;;;825469;173;27010;-88
2023/11/19 09:58:54;;;;;;;22.20;5.83;;;14.70;78.30;;;;;;825460;173;26418;-88
2023/11/19 10:01:20;;;;;;;19.60;4.67;;;14.50;79.10;;;;;;825604;174;26942;-88
2023/11/19 10:03:47;;;;;;;22.20;6.17;;;14.50;77.50;;;;;;825624;174;26423;-89
2023/11/19 10:06:13;;;;;;;24.63;4.70;;;14.50;79.80;;;;;;825427;174;26417;-89
2023/11/19 10:08:40;;;;;;;16.00;4.70;;;14.50;80.50;;;;;;826014;172;26428;-90
2023/11/19 10:11:07;;;;;;;27.70;6.67;;;14.70;76.60;;;;;;827611;172;26417;-89
2023/11/19 10:13:37;;;;;;;25.57;6.70;;;14.80;76.30;;;;;;826154;173;26451;-91
2023/11/19 10:16:02;;;;;;;27.97;9.17;;;15.20;75.50;;;;;;825348;173;26422;-91
2023/11/19 10:18:28;;;;;;;25.27;7.90;;;15.50;77.20;;;;;;825409;173;26434;-91
2023/11/19 10:20:55;;;;;;;23.23;8.57;;;15.70;72.80;;;;;;825164;174;26977;-91
2023/11/19 10:23:22;;;;;;;20.87;6.80;;;16.10;71.80;;;;;;825820;173;26417;-88
2023/11/19 10:25:48;;;;;;;22.97;6.23;;;15.60;73.90;;;;;;825883;173;26414;-91
2023/11/19 10:28:16;;;;;;;23.57;5.20;;;15.40;74.00;;;;;;824866;173;26443;-92
2023/11/19 10:30:42;;;;;;;22.60;5.73;;;15.60;72.50;;;;;;824812;173;26406;-91
2023/11/19 10:33:17;;;;;;;25.37;6.40;;;16.10;73.00;;;;;;825494;173;26445;-91
2023/11/19 10:35:53;;;;;;;26.53;8.67;;;15.80;71.90;;;;;;825345;173;26420;-90
2023/11/19 10:38:17;;;;;;;40.17;13.30;;;15.40;74.80;;;;;;825590;173;26462;-90
2023/11/19 10:40:44;;;;;;;44.63;20.93;;;15.30;76.50;;;;;;825674;174;26417;-90
2023/11/19 10:43:11;;;;;;;62.03;30.63;;;15.30;74.70;;;;;;825769;174;26427;-90
2023/11/19 10:45:37;;;;;;;26.20;8.63;;;15.10;74.30;;;;;;825341;174;26970;-90
2023/11/19 10:48:07;;;;;;;36.93;16.33;;;15.20;75.00;;;;;;824901;173;26410;-90
2023/11/19 10:50:34;;;;;;;27.80;8.37;;;15.10;74.60;;;;;;824908;174;26412;-90
2023/11/19 10:53:00;;;;;;;46.50;17.30;;;14.80;75.40;;;;;;824947;173;26446;-90
2023/11/19 10:55:27;;;;;;;47.87;21.50;;;14.80;75.30;;;;;;825023;174;26961;-90
2023/11/19 10:57:53;;;;;;;29.17;8.33;;;14.70;75.70;;;;;;824437;174;26428;-90
2023/11/19 11:00:20;;;;;;;26.53;8.90;;;14.60;75.80;;;;;;824064;173;26958;-90
2023/11/19 11:02:47;;;;;;;47.23;21.87;;;14.60;75.10;;;;;;824292;173;26982;-90
2023/11/19 11:05:13;;;;;;;27.43;9.93;;;14.70;76.90;;;;;;824171;173;26419;-90
2023/11/19 11:07:41;;;;;;;17.47;4.60;;;14.70;76.10;;;;;;824416;174;26986;-90
2023/11/19 11:10:09;;;;;;;16.50;4.40;;;14.50;73.90;;;;;;824619;173;26418;-90
2023/11/19 11:12:34;;;;;;;17.10;4.10;;;14.50;75.80;;;;;;824615;174;26423;-90
2023/11/19 11:15:01;;;;;;;23.83;5.70;;;14.40;74.90;;;;;;824523;173;26979;-90
2023/11/19 11:17:28;;;;;;;43.10;14.67;;;14.20;76.90;;;;;;824766;174;26435;-90
2023/11/19 11:19:55;;;;;;;29.70;11.67;;;14.20;78.20;;;;;;824696;172;26969;-91
2023/11/19 11:22:21;;;;;;;18.13;5.07;;;14.10;78.70;;;;;;827541;173;26444;-90
2023/11/19 11:24:51;;;;;;;48.03;19.37;;;14.00;80.10;;;;;;826712;173;26490;-89
2023/11/19 11:27:25;;;;;;;30.97;12.53;;;13.90;82.00;;;;;;825543;174;26426;-90
2023/11/19 11:29:59;;;;;;;27.90;6.37;;;14.10;79.10;;;;;;825107;173;26402;-90
2023/11/19 11:32:45;;;;;;;23.17;7.60;;;14.20;78.00;;;;;;825363;173;26422;-90
2023/11/19 11:35:16;;;;;;;21.80;7.83;;;14.30;76.70;;;;;;820761;174;27004;-89
2023/11/19 11:37:47;;;;;;;32.03;13.37;;;14.30;76.20;;;;;;824846;173;26415;-90
2023/11/19 11:40:15;;;;;;;32.30;12.90;;;14.40;77.10;;;;;;824962;173;26418;-90
2023/11/19 11:42:42;;;;;;;22.30;7.70;;;14.40;76.90;;;;;;825320;173;27020;-90
2023/11/19 11:45:12;;;;;;;29.73;12.50;;;14.50;74.10;;;;;;825107;173;26450;-90
2023/11/19 11:48:00;;;;;;;23.00;9.10;;;14.40;74.70;;;;;;824943;173;26414;-90
2023/11/19 11:50:27;;;;;;;18.23;4.63;;;14.30;74.10;;;;;;820060;173;26446;-90
2023/11/19 11:53:22;;;;;;;18.67;6.77;;;14.30;73.00;;;;;;824999;173;26418;-90
2023/11/19 11:55:57;;;;;;;86.07;44.07;;;14.20;75.00;;;;;;825193;173;26500;-90
2023/11/19 11:58:22;;;;;;;99.37;49.23;;;14.20;75.70;;;;;;825082;173;26417;-90
2023/11/19 12:00:50;;;;;;;103.27;50.07;;;14.20;76.50;;;;;;824123;173;27025;-91
2023/11/19 12:03:16;;;;;;;63.23;32.00;;;14.70;75.10;;;;;;816245;173;26415;-90
2023/11/19 12:05:43;;;;;;;30.03;12.73;;;15.60;70.30;;;;;;815268;173;26593;-91
2023/11/19 12:08:11;;;;;;;18.77;8.87;;;16.20;68.50;;;;;;813516;173;26424;-91
2023/11/19 12:10:37;;;;;;;13.90;5.40;;;16.70;67.30;;;;;;810263;174;26948;-91
2023/11/19 12:13:04;;;;;;;16.20;5.20;;;16.40;67.70;;;;;;809327;174;26424;-91
2023/11/19 12:15:30;;;;;;;12.60;5.13;;;16.20;67.30;;;;;;809520;174;26451;-90
2023/11/19 12:17:57;;;;;;;30.73;14.33;;;16.00;68.40;;;;;;809679;176;26429;-91
2023/11/19 12:20:23;;;;;;;48.33;21.47;;;15.80;70.80;;;;;;812010;174;26409;-90
2023/11/19 12:22:50;;;;;;;42.17;21.73;;;16.20;68.50;;;;;;815316;175;26976;-90
2023/11/19 12:25:16;;;;;;;31.43;15.57;;;15.90;69.20;;;;;;815632;175;26451;-90
2023/11/19 12:27:44;;;;;;;20.27;6.40;;;15.80;68.30;;;;;;815677;176;26409;-90
2023/11/19 12:30:11;;;;;;;29.80;13.57;;;15.30;69.50;;;;;;815728;173;26952;-90
2023/11/19 12:32:39;;;;;;;29.67;12.40;;;15.30;71.00;;;;;;817509;174;26439;-90
2023/11/19 12:35:06;;;;;;;25.33;8.27;;;15.20;71.40;;;;;;817710;173;26449;-90
2023/11/19 12:37:32;;;;;;;19.83;6.67;;;15.50;72.20;;;;;;817330;175;26416;-90
2023/11/19 12:39:59;;;;;;;19.13;5.33;;;15.70;70.30;;;;;;816663;173;26981;-90
2023/11/19 12:42:38;;;;;;;21.00;6.53;;;15.70;71.30;;;;;;816756;176;26428;-90
2023/11/19 12:45:05;;;;;;;24.27;7.50;;;15.50;71.00;;;;;;814082;173;26969;-90
2023/11/19 12:47:32;;;;;;;49.23;23.80;;;15.10;71.00;;;;;;811033;175;26963;-90
2023/11/19 12:49:58;;;;;;;33.90;15.80;;;14.90;74.20;;;;;;811011;174;26431;-90
2023/11/19 12:52:25;;;;;;;23.77;8.17;;;14.80;74.10;;;;;;810366;175;26440;-90
2023/11/19 12:54:52;;;;;;;20.27;9.23;;;14.70;73.30;;;;;;810502;177;26408;-90
2023/11/19 12:57:19;;;;;;;35.30;16.17;;;14.70;74.50;;;;;;819724;173;26434;-89
2023/11/19 12:59:55;;;;;;;51.03;27.30;;;14.60;75.20;;;;;;829469;173;26418;-90
2023/11/19 13:02:21;;;;;;;29.10;13.40;;;14.50;75.40;;;;;;829430;173;26969;-90
2023/11/19 13:04:48;;;;;;;24.40;11.83;;;14.50;75.20;;;;;;829129;173;26420;-90
2023/11/19 13:07:26;;;;;;;21.67;8.30;;;14.60;77.40;;;;;;829435;173;27996;-90
2023/11/19 13:10:15;;;;;;;49.20;22.53;;;14.70;76.90;;;;;;828976;174;26409;-90
2023/11/19 13:12:47;;;;;;;50.03;22.03;;;14.70;76.00;;;;;;817717;172;26497;-88
2023/11/19 13:15:24;;;;;;;49.40;23.37;;;14.80;75.00;;;;;;793446;181;27035;-89
2023/11/19 13:17:50;;;;;;;28.30;13.40;;;14.60;75.30;;;;;;791841;181;26478;-87
2023/11/19 13:20:17;;;;;;;28.70;12.67;;;14.50;74.90;;;;;;791435;181;26496;-88
2023/11/19 13:22:55;;;;;;;24.13;10.33;;;14.60;75.60;;;;;;791670;180;27062;-88
2023/11/19 13:36:26;;;;;;;15.60;5.73;;;15.30;74.80;;;;;;730213;174;27045;-88
2023/11/19 13:38:51;;;;;;;44.30;22.80;;;15.10;73.50;;;;;;771644;183;26854;-88
2023/11/19 13:41:18;;;;;;;82.67;43.97;;;15.20;72.60;;;;;;772462;183;26527;-88
2023/11/19 13:43:44;;;;;;;53.00;25.47;;;15.10;73.50;;;;;;771473;181;27040;-88
2023/11/19 13:46:18;;;;;;;57.40;29.27;;;15.10;72.50;;;;;;758554;187;26555;-87
2023/11/19 13:48:45;;;;;;;106.47;50.90;;;15.10;73.30;;;;;;752541;186;26520;-89